Time;durP1;ratioP1;P1;durP2;ratioP2;P2;SDS_P1;SDS_P2;PMS_P1;PMS_P2;Temp;Humidity;BMP_temperature;BMP_pressure;BME280_temperature;BME280_humidity;BME280_pressure;Samples;Min_cycle;Max_cycle;Signal;HPM_P1;HPM_P2
2022/04/02 00:00:40;;;;;;;2.72;1.85;;;;;;;;;;5016164;28;20346;-81
2022/04/02 00:03:06;;;;;;;3.17;1.90;;;;;;;;;;5023377;28;20084;-81
2022/04/02 00:05:32;;;;;;;4.10;2.00;;;;;;;;;;5011647;28;20413;-82
2022/04/02 00:07:58;;;;;;;4.43;2.10;;;;;;;;;;5026675;28;20053;-81
2022/04/02 00:10:24;;;;;;;2.78;1.67;;;;;;;;;;5010985;28;20045;-81
2022/04/02 00:12:50;;;;;;;2.92;1.92;;;;;;;;;;5009993;28;20041;-81
2022/04/02 00:15:16;;;;;;;3.17;1.92;;;;;;;;;;5017664;28;20040;-81
2022/04/02 00:17:42;;;;;;;2.92;1.60;;;;;;;;;;5010724;28;20052;-81
2022/04/02 00:20:08;;;;;;;4.25;2.25;;;;;;;;;;5025825;28;20116;-82
2022/04/02 00:22:33;;;;;;;2.38;1.50;;;;;;;;;;5009782;28;20529;-81
2022/04/02 00:24:59;;;;;;;5.00;2.95;;;;;;;;;;5009838;28;20124;-81
2022/04/02 00:27:25;;;;;;;5.07;1.75;;;;;;;;;;5004494;28;20045;-81
2022/04/02 00:29:51;;;;;;;1.60;1.38;;;;;;;;;;5034407;28;20029;-82
2022/04/02 00:32:17;;;;;;;3.72;1.88;;;;;;;;;;5013594;28;20509;-81
2022/04/02 00:34:42;;;;;;;2.75;1.85;;;;;;;;;;5010338;28;20037;-81
2022/04/02 00:37:08;;;;;;;4.18;2.10;;;;;;;;;;5006372;28;20037;-82
2022/04/02 00:39:34;;;;;;;1.75;1.40;;;;;;;;;;5023974;28;20755;-81
2022/04/02 00:42:00;;;;;;;3.17;1.60;;;;;;;;;;5000655;28;20037;-81
2022/04/02 00:44:26;;;;;;;3.13;1.65;;;;;;;;;;5008764;28;20042;-82
2022/04/02 00:46:53;;;;;;;4.28;1.42;;;;;;;;;;5028542;28;20029;-81
2022/04/02 00:49:18;;;;;;;4.07;2.00;;;;;;;;;;5006671;28;20106;-81
2022/04/02 00:51:45;;;;;;;3.63;1.83;;;;;;;;;;5027534;28;20033;-81
2022/04/02 00:54:18;;;;;;;3.88;1.90;;;;;;;;;;5009291;28;20102;-82
2022/04/02 00:56:44;;;;;;;3.38;1.67;;;;;;;;;;5010713;28;20043;-81
2022/04/02 00:59:12;;;;;;;5.72;2.00;;;;;;;;;;5021490;28;20049;-81
2022/04/02 01:01:38;;;;;;;3.95;2.00;;;;;;;;;;5012656;28;20120;-81
2022/04/02 01:04:06;;;;;;;4.35;2.08;;;;;;;;;;5025097;28;20029;-81
2022/04/02 01:06:32;;;;;;;3.13;1.77;;;;;;;;;;5025618;28;20523;-81
2022/04/02 01:09:00;;;;;;;4.55;1.77;;;;;;;;;;5025905;28;22763;-81
2022/04/02 01:11:36;;;;;;;4.88;2.13;;;;;;;;;;5029307;28;20036;-81
2022/04/02 01:14:03;;;;;;;2.65;1.63;;;;;;;;;;5024665;28;20028;-81
2022/04/02 01:16:29;;;;;;;5.53;2.22;;;;;;;;;;5030465;28;20067;-82
2022/04/02 01:18:55;;;;;;;5.35;1.88;;;;;;;;;;5026030;28;20033;-81
2022/04/02 01:21:21;;;;;;;3.03;1.98;;;;;;;;;;5011239;28;20564;-81
2022/04/02 01:23:47;;;;;;;2.88;1.90;;;;;;;;;;5027130;28;20179;-81
2022/04/02 01:26:13;;;;;;;4.80;2.15;;;;;;;;;;5029801;28;20047;-81
2022/04/02 01:28:40;;;;;;;4.18;1.77;;;;;;;;;;5009767;28;20444;-81
2022/04/02 01:31:07;;;;;;;5.05;1.60;;;;;;;;;;5005857;28;20084;-81
2022/04/02 01:33:34;;;;;;;3.45;1.70;;;;;;;;;;5025988;28;20035;-81
2022/04/02 01:36:05;;;;;;;4.47;1.85;;;;;;;;;;5040843;28;20127;-82
2022/04/02 01:38:31;;;;;;;3.60;1.80;;;;;;;;;;5011817;28;20395;-81
2022/04/02 01:40:57;;;;;;;3.92;2.25;;;;;;;;;;5009678;28;20095;-81
2022/04/02 01:43:26;;;;;;;3.65;2.20;;;;;;;;;;5026261;28;20045;-81
2022/04/02 01:45:56;;;;;;;2.30;1.83;;;;;;;;;;5021643;28;20065;-81
2022/04/02 01:48:21;;;;;;;4.00;1.73;;;;;;;;;;5013623;28;20127;-81
2022/04/02 01:50:48;;;;;;;4.15;1.85;;;;;;;;;;5027544;28;20044;-81
2022/04/02 01:53:13;;;;;;;4.63;2.03;;;;;;;;;;5020920;28;20051;-82
2022/04/02 01:55:39;;;;;;;3.00;2.00;;;;;;;;;;5043832;28;20037;-81
2022/04/02 01:58:05;;;;;;;6.03;2.63;;;;;;;;;;5029457;28;20458;-81
2022/04/02 02:00:32;;;;;;;5.88;2.05;;;;;;;;;;5028495;28;20248;-81
2022/04/02 02:02:57;;;;;;;6.50;1.65;;;;;;;;;;5039444;28;20040;-81
2022/04/02 02:05:23;;;;;;;4.80;2.30;;;;;;;;;;5031608;28;20039;-81
2022/04/02 02:07:50;;;;;;;3.75;2.33;;;;;;;;;;5025871;28;20041;-81
2022/04/02 02:10:16;;;;;;;6.32;2.33;;;;;;;;;;5027049;28;20088;-81
2022/04/02 02:12:42;;;;;;;3.40;1.98;;;;;;;;;;5010044;28;20382;-81
2022/04/02 02:15:08;;;;;;;5.53;2.42;;;;;;;;;;5009746;28;20130;-81
2022/04/02 02:17:34;;;;;;;7.60;2.55;;;;;;;;;;5029753;28;20570;-81
2022/04/02 02:20:00;;;;;;;6.70;2.45;;;;;;;;;;5026841;28;20115;-81
2022/04/02 02:22:26;;;;;;;4.45;1.80;;;;;;;;;;5045395;28;20035;-81
2022/04/02 02:24:52;;;;;;;4.70;1.73;;;;;;;;;;5028990;28;20036;-80
2022/04/02 02:27:17;;;;;;;3.38;1.80;;;;;;;;;;5028218;28;20064;-79
2022/04/02 02:29:43;;;;;;;6.03;2.13;;;;;;;;;;5028702;28;20079;-80
2022/04/02 02:32:09;;;;;;;7.20;2.55;;;;;;;;;;5031347;28;20041;-80
2022/04/02 02:37:20;;;;;;;5.13;2.10;;;;;;;;;;5062724;28;20125;-80
2022/04/02 02:39:46;;;;;;;4.53;2.78;;;;;;;;;;5032754;28;20072;-80
2022/04/02 02:42:11;;;;;;;2.95;2.00;;;;;;;;;;5019675;28;20044;-79
2022/04/02 02:44:37;;;;;;;4.80;2.67;;;;;;;;;;5047907;28;20533;-80
2022/04/02 02:47:03;;;;;;;6.78;2.70;;;;;;;;;;5026939;28;20045;-80
2022/04/02 02:49:29;;;;;;;6.20;2.17;;;;;;;;;;5018787;28;20371;-80
2022/04/02 02:51:54;;;;;;;4.43;2.22;;;;;;;;;;5056888;28;20045;-80
2022/04/02 02:54:20;;;;;;;5.13;2.38;;;;;;;;;;5013470;28;20049;-79
2022/04/02 02:56:49;;;;;;;10.25;4.45;;;;;;;;;;5046749;28;20125;-79
2022/04/02 02:59:14;;;;;;;9.93;5.20;;;;;;;;;;5018514;28;20044;-80
2022/04/02 03:01:40;;;;;;;4.97;2.70;;;;;;;;;;5024762;28;20037;-79
2022/04/02 03:04:06;;;;;;;5.72;3.92;;;;;;;;;;5008773;28;20037;-79
2022/04/02 03:06:33;;;;;;;4.30;2.88;;;;;;;;;;5023247;28;20048;-79
2022/04/02 03:08:59;;;;;;;5.63;3.10;;;;;;;;;;5021367;28;20663;-80
2022/04/02 03:11:25;;;;;;;6.68;2.53;;;;;;;;;;5067124;28;20045;-79
2022/04/02 03:13:51;;;;;;;6.75;3.47;;;;;;;;;;5032609;28;20478;-80
2022/04/02 03:16:16;;;;;;;4.03;2.58;;;;;;;;;;5026381;28;20067;-80
2022/04/02 03:18:42;;;;;;;7.32;2.10;;;;;;;;;;5034386;28;20502;-80
2022/04/02 03:21:08;;;;;;;5.07;2.53;;;;;;;;;;5024345;28;20071;-80
2022/04/02 03:23:34;;;;;;;4.18;2.40;;;;;;;;;;5028997;28;20041;-79
2022/04/02 03:26:00;;;;;;;6.28;2.47;;;;;;;;;;5018769;28;20528;-79
2022/04/02 03:28:25;;;;;;;5.45;2.50;;;;;;;;;;5013832;28;20041;-79
2022/04/02 03:30:51;;;;;;;4.40;2.38;;;;;;;;;;5014130;28;20033;-79
2022/04/02 03:33:20;;;;;;;3.58;2.08;;;;;;;;;;5011064;28;20036;-80
2022/04/02 03:35:45;;;;;;;5.57;2.40;;;;;;;;;;5028735;28;20064;-80
2022/04/02 03:38:11;;;;;;;7.85;2.63;;;;;;;;;;5006035;28;20049;-80
2022/04/02 03:40:37;;;;;;;4.25;2.47;;;;;;;;;;5024768;28;20041;-79
2022/04/02 03:43:04;;;;;;;5.63;2.50;;;;;;;;;;5042894;28;20041;-79
2022/04/02 03:45:30;;;;;;;4.32;2.08;;;;;;;;;;5032767;28;20079;-79
2022/04/02 03:47:57;;;;;;;6.47;3.13;;;;;;;;;;5033385;28;20041;-79
2022/04/02 03:50:22;;;;;;;3.88;2.47;;;;;;;;;;5028957;28;20053;-79
2022/04/02 03:52:48;;;;;;;4.53;2.55;;;;;;;;;;5025323;28;20045;-79
2022/04/02 03:55:15;;;;;;;6.82;3.20;;;;;;;;;;5046396;28;20037;-79
2022/04/02 03:57:41;;;;;;;5.43;3.03;;;;;;;;;;5025041;28;20084;-79
2022/04/02 04:00:08;;;;;;;5.70;2.75;;;;;;;;;;5027818;28;20401;-80
2022/04/02 04:02:37;;;;;;;4.82;2.85;;;;;;;;;;5031826;28;20056;-79
2022/04/02 04:05:04;;;;;;;6.13;3.00;;;;;;;;;;5040133;28;20124;-79
2022/04/02 04:07:30;;;;;;;7.00;2.63;;;;;;;;;;5037737;28;20473;-79
2022/04/02 04:09:58;;;;;;;5.22;2.63;;;;;;;;;;5042495;28;20484;-79
2022/04/02 04:12:24;;;;;;;6.38;2.33;;;;;;;;;;5024514;28;20416;-79
2022/04/02 04:14:49;;;;;;;6.28;2.30;;;;;;;;;;5009101;28;20045;-79
2022/04/02 04:17:15;;;;;;;2.28;2.05;;;;;;;;;;5020417;28;20048;-79
2022/04/02 04:19:41;;;;;;;6.03;2.47;;;;;;;;;;5007714;28;20045;-79
2022/04/02 04:22:07;;;;;;;4.85;2.13;;;;;;;;;;5028401;28;20090;-79
2022/04/02 04:24:33;;;;;;;3.25;2.03;;;;;;;;;;5021939;28;20032;-79
2022/04/02 04:26:59;;;;;;;5.88;2.20;;;;;;;;;;5035211;28;20043;-80
2022/04/02 04:29:25;;;;;;;6.38;2.65;;;;;;;;;;5042914;28;20425;-79
2022/04/02 04:31:50;;;;;;;5.93;2.55;;;;;;;;;;5016851;28;20041;-79
2022/04/02 04:34:17;;;;;;;7.47;2.20;;;;;;;;;;5007562;28;20153;-79
2022/04/02 04:36:43;;;;;;;6.05;2.30;;;;;;;;;;5015170;28;20233;-79
2022/04/02 04:39:09;;;;;;;7.82;2.90;;;;;;;;;;5015894;28;20372;-79
2022/04/02 04:41:38;;;;;;;5.30;2.50;;;;;;;;;;5018433;28;20045;-79
2022/04/02 04:44:04;;;;;;;6.50;2.38;;;;;;;;;;5013727;28;20045;-79
2022/04/02 04:46:30;;;;;;;3.90;2.17;;;;;;;;;;5040569;28;20139;-79
2022/04/02 04:48:55;;;;;;;2.83;2.33;;;;;;;;;;5031521;28;20037;-79
2022/04/02 04:51:23;;;;;;;6.18;2.58;;;;;;;;;;5033705;28;20047;-79
2022/04/02 04:53:51;;;;;;;7.07;2.60;;;;;;;;;;5020176;28;20280;-79
2022/04/02 04:56:17;;;;;;;4.38;2.40;;;;;;;;;;5020157;28;20036;-79
2022/04/02 04:58:43;;;;;;;4.07;2.53;;;;;;;;;;5023153;28;20068;-79
2022/04/02 05:01:09;;;;;;;4.95;2.25;;;;;;;;;;5035469;28;20328;-79
2022/04/02 05:03:35;;;;;;;5.47;2.50;;;;;;;;;;5037164;28;20062;-79
2022/04/02 05:06:01;;;;;;;5.07;2.40;;;;;;;;;;5034708;28;20045;-78
2022/04/02 05:08:27;;;;;;;7.43;2.50;;;;;;;;;;5026927;28;20231;-79
2022/04/02 05:10:53;;;;;;;7.90;2.15;;;;;;;;;;5033070;28;20108;-79
2022/04/02 05:13:18;;;;;;;4.35;2.47;;;;;;;;;;5031734;28;20047;-79
2022/04/02 05:15:45;;;;;;;6.00;2.30;;;;;;;;;;5035759;28;20037;-79
2022/04/02 05:18:11;;;;;;;5.35;2.58;;;;;;;;;;5016432;28;20041;-79
2022/04/02 05:20:38;;;;;;;5.70;1.92;;;;;;;;;;5034063;28;20037;-79
2022/04/02 05:23:05;;;;;;;5.28;2.22;;;;;;;;;;5025868;28;20029;-79
2022/04/02 05:25:33;;;;;;;4.07;2.08;;;;;;;;;;5017038;28;20053;-80
2022/04/02 05:27:59;;;;;;;6.97;2.50;;;;;;;;;;5032639;28;20044;-79
2022/04/02 05:30:27;;;;;;;4.55;2.28;;;;;;;;;;5035995;28;20036;-80
2022/04/02 05:32:52;;;;;;;8.38;3.00;;;;;;;;;;5035060;28;20037;-79
2022/04/02 05:35:18;;;;;;;4.10;2.20;;;;;;;;;;5030812;28;20068;-80
2022/04/02 05:37:47;;;;;;;5.22;2.47;;;;;;;;;;5040747;28;20132;-80
2022/04/02 05:40:13;;;;;;;5.05;2.05;;;;;;;;;;5048955;28;20509;-79
2022/04/02 05:42:39;;;;;;;6.75;2.28;;;;;;;;;;5047148;28;20046;-79
2022/04/02 05:45:05;;;;;;;5.45;1.92;;;;;;;;;;5023484;28;20079;-79
2022/04/02 05:47:48;;;;;;;6.85;2.30;;;;;;;;;;5019583;28;20037;-84
2022/04/02 05:50:15;;;;;;;4.57;2.30;;;;;;;;;;5019422;28;20492;-84
2022/04/02 05:52:41;;;;;;;3.35;2.08;;;;;;;;;;5038300;28;20106;-84
2022/04/02 05:55:08;;;;;;;3.63;2.28;;;;;;;;;;5055098;28;20056;-84
2022/04/02 05:57:35;;;;;;;5.10;2.22;;;;;;;;;;5022923;28;20505;-84
2022/04/02 06:00:03;;;;;;;9.18;2.13;;;;;;;;;;5024620;28;20428;-85
2022/04/02 06:02:29;;;;;;;4.72;2.53;;;;;;;;;;5018425;28;20034;-84
2022/04/02 06:04:55;;;;;;;4.32;2.40;;;;;;;;;;5052182;28;20075;-85
2022/04/02 06:07:21;;;;;;;3.45;1.80;;;;;;;;;;5053284;28;20040;-84
2022/04/02 06:09:46;;;;;;;4.07;1.92;;;;;;;;;;5020053;28;20041;-85
2022/04/02 06:12:12;;;;;;;9.00;2.50;;;;;;;;;;5035194;28;20041;-84
2022/04/02 06:14:38;;;;;;;5.85;2.20;;;;;;;;;;5048659;28;20071;-84
2022/04/02 06:17:04;;;;;;;7.30;2.42;;;;;;;;;;5043733;28;20041;-84
2022/04/02 06:19:29;;;;;;;5.55;2.03;;;;;;;;;;5040912;28;20040;-86
2022/04/02 06:21:55;;;;;;;2.55;1.77;;;;;;;;;;5023088;28;20044;-86
2022/04/02 06:24:21;;;;;;;5.93;2.03;;;;;;;;;;5054931;28;20053;-86
2022/04/02 06:26:46;;;;;;;5.90;2.40;;;;;;;;;;5034384;28;20107;-86
2022/04/02 06:29:12;;;;;;;4.70;2.25;;;;;;;;;;5015846;28;20042;-85
2022/04/02 06:31:39;;;;;;;3.15;1.90;;;;;;;;;;5034989;28;20060;-85
2022/04/02 06:34:05;;;;;;;3.97;1.92;;;;;;;;;;5025991;28;20387;-85
2022/04/02 06:36:30;;;;;;;2.55;1.65;;;;;;;;;;5048331;28;20043;-85
2022/04/02 06:38:56;;;;;;;4.45;2.28;;;;;;;;;;5039203;28;20061;-86
2022/04/02 06:41:22;;;;;;;7.82;2.63;;;;;;;;;;5037325;28;20461;-84
2022/04/02 06:43:48;;;;;;;3.20;2.33;;;;;;;;;;5049581;28;20071;-85
2022/04/02 06:46:13;;;;;;;5.65;2.20;;;;;;;;;;5055182;28;20048;-85
2022/04/02 06:48:39;;;;;;;4.40;2.05;;;;;;;;;;5040734;28;20590;-85
2022/04/02 06:51:07;;;;;;;4.65;1.85;;;;;;;;;;5053189;28;20135;-85
2022/04/02 06:53:33;;;;;;;4.70;1.70;;;;;;;;;;5037775;28;20033;-85
2022/04/02 06:55:59;;;;;;;3.78;1.58;;;;;;;;;;5023163;28;20120;-85
2022/04/02 06:58:39;;;;;;;4.85;2.00;;;;;;;;;;5041955;28;20040;-85
2022/04/02 07:01:05;;;;;;;3.42;2.00;;;;;;;;;;5056932;28;20123;-85
2022/04/02 07:03:31;;;;;;;3.13;1.60;;;;;;;;;;5025063;28;20052;-85
2022/04/02 07:05:57;;;;;;;4.05;2.00;;;;;;;;;;5059203;28;20043;-85
2022/04/02 07:08:23;;;;;;;5.05;1.50;;;;;;;;;;5023804;28;20072;-85
2022/04/02 07:10:49;;;;;;;5.25;2.03;;;;;;;;;;5016939;28;20041;-85
2022/04/02 07:13:15;;;;;;;3.50;1.60;;;;;;;;;;5049114;28;20068;-85
2022/04/02 07:15:41;;;;;;;5.55;1.60;;;;;;;;;;5024685;28;20041;-85
2022/04/02 07:18:08;;;;;;;3.97;1.40;;;;;;;;;;5032112;28;20051;-85
2022/04/02 07:20:38;;;;;;;4.35;2.42;;;;;;;;;;5025310;28;20046;-85
2022/04/02 07:23:08;;;;;;;3.70;1.95;;;;;;;;;;5028305;28;20036;-85
2022/04/02 07:25:36;;;;;;;3.20;1.92;;;;;;;;;;5042270;28;20045;-85
2022/04/02 07:28:04;;;;;;;4.80;1.77;;;;;;;;;;5014915;28;20061;-85
2022/04/02 07:30:32;;;;;;;3.88;1.23;;;;;;;;;;5019041;28;20409;-85
2022/04/02 07:32:58;;;;;;;7.10;2.40;;;;;;;;;;5016779;28;20063;-85
2022/04/02 07:35:23;;;;;;;3.97;1.35;;;;;;;;;;5040222;28;20037;-85
2022/04/02 07:38:08;;;;;;;3.58;1.45;;;;;;;;;;5025697;28;20123;-86
2022/04/02 07:40:41;;;;;;;4.93;1.20;;;;;;;;;;5043800;28;20044;-86
2022/04/02 07:43:20;;;;;;;3.75;1.60;;;;;;;;;;5018128;28;20152;-85
2022/04/02 07:45:52;;;;;;;3.05;1.88;;;;;;;;;;5033810;28;20037;-85
2022/04/02 07:48:19;;;;;;;3.53;1.45;;;;;;;;;;5036016;28;20086;-86
2022/04/02 07:50:46;;;;;;;3.60;1.30;;;;;;;;;;5034194;28;20048;-85
2022/04/02 07:53:24;;;;;;;11.32;1.58;;;;;;;;;;5049676;28;20528;-85
2022/04/02 07:55:55;;;;;;;5.40;1.73;;;;;;;;;;5069464;28;20040;-85
2022/04/02 07:58:26;;;;;;;3.47;1.05;;;;;;;;;;5038548;28;20082;-85
2022/04/02 08:00:55;;;;;;;3.65;1.42;;;;;;;;;;5033439;28;20336;-85
2022/04/02 08:03:21;;;;;;;2.25;1.30;;;;;;;;;;5059595;28;20504;-85
2022/04/02 08:05:47;;;;;;;4.18;1.70;;;;;;;;;;5029726;28;20424;-85
2022/04/02 08:08:13;;;;;;;7.38;1.70;;;;;;;;;;5038862;28;20037;-85
2022/04/02 08:10:45;;;;;;;3.85;1.75;;;;;;;;;;5058299;28;20047;-85
2022/04/02 08:13:14;;;;;;;7.18;1.90;;;;;;;;;;5028099;28;20044;-85
2022/04/02 08:15:40;;;;;;;4.05;1.70;;;;;;;;;;5063917;28;20509;-86
2022/04/02 08:18:07;;;;;;;2.75;1.60;;;;;;;;;;5023228;28;20048;-85
2022/04/02 08:20:33;;;;;;;1.55;1.30;;;;;;;;;;5021434;28;20392;-85
2022/04/02 08:22:59;;;;;;;4.85;2.03;;;;;;;;;;5035542;28;20033;-85
2022/04/02 08:25:24;;;;;;;1.95;1.20;;;;;;;;;;5030536;28;20067;-85
2022/04/02 08:27:53;;;;;;;3.28;1.40;;;;;;;;;;5032955;28;20032;-85
2022/04/02 08:30:35;;;;;;;4.38;1.70;;;;;;;;;;5047613;28;20045;-85
2022/04/02 08:33:13;;;;;;;5.63;1.77;;;;;;;;;;5036692;28;20128;-86
2022/04/02 08:36:13;;;;;;;3.30;1.50;;;;;;;;;;5046066;28;20120;-85
2022/04/02 08:38:51;;;;;;;2.63;1.42;;;;;;;;;;5032633;28;20332;-85
2022/04/02 08:41:55;;;;;;;5.47;1.60;;;;;;;;;;5034719;28;20041;-86
2022/04/02 08:44:42;;;;;;;3.38;1.83;;;;;;;;;;5062056;28;20037;-85
2022/04/02 08:47:26;;;;;;;3.13;1.60;;;;;;;;;;5052781;28;20071;-85
2022/04/02 08:50:07;;;;;;;2.80;1.73;;;;;;;;;;5043206;28;20092;-85
2022/04/02 08:52:55;;;;;;;2.50;1.33;;;;;;;;;;5044939;28;20163;-85
2022/04/02 08:55:24;;;;;;;3.40;1.45;;;;;;;;;;5020860;28;20075;-86
2022/04/02 08:57:53;;;;;;;2.05;1.65;;;;;;;;;;5019690;28;20111;-85
2022/04/02 09:00:26;;;;;;;1.67;1.27;;;;;;;;;;5038316;28;20082;-85
2022/04/02 09:03:14;;;;;;;3.13;1.67;;;;;;;;;;5034029;28;20040;-86
2022/04/02 09:06:10;;;;;;;5.22;2.10;;;;;;;;;;5043886;28;20033;-86
2022/04/02 09:08:58;;;;;;;;;;;;;;;;;;5066051;28;20041;-85
2022/04/02 09:11:40;;;;;;;4.30;1.75;;;;;;;;;;5017450;28;19920;-86
2022/04/02 09:14:16;;;;;;;2.63;1.70;;;;;;;;;;5053868;28;20037;-85
2022/04/02 09:17:00;;;;;;;3.05;1.98;;;;;;;;;;5028555;28;20025;-87
2022/04/02 09:19:31;;;;;;;6.32;1.75;;;;;;;;;;5027960;28;20555;-87
2022/04/02 09:22:18;;;;;;;2.92;1.75;;;;;;;;;;5046796;28;20044;-87
2022/04/02 09:25:02;;;;;;;2.28;1.20;;;;;;;;;;5044949;28;20041;-87
2022/04/02 09:27:43;;;;;;;5.57;1.40;;;;;;;;;;5062237;28;20405;-87
2022/04/02 09:30:19;;;;;;;2.80;1.42;;;;;;;;;;5031090;28;20032;-87
2022/04/02 09:33:22;;;;;;;4.00;1.60;;;;;;;;;;5030974;28;20114;-87
2022/04/02 09:36:11;;;;;;;2.45;1.40;;;;;;;;;;5037300;28;20033;-87
2022/04/02 09:39:01;;;;;;;2.22;1.40;;;;;;;;;;5030140;28;20041;-87
2022/04/02 09:42:09;;;;;;;2.78;1.30;;;;;;;;;;5016192;28;20052;-86
2022/04/02 09:44:53;;;;;;;5.22;1.70;;;;;;;;;;5024640;28;20068;-87
2022/04/02 09:47:23;;;;;;;3.63;1.63;;;;;;;;;;5014511;28;20101;-86
2022/04/02 09:49:57;;;;;;;3.67;1.95;;;;;;;;;;5015714;28;20354;-87
2022/04/02 09:52:25;;;;;;;2.00;1.25;;;;;;;;;;5018262;28;20054;-87
2022/04/02 09:55:11;;;;;;;2.65;1.50;;;;;;;;;;5015768;28;20570;-86
2022/04/02 09:57:46;;;;;;;1.73;1.40;;;;;;;;;;5032096;28;20398;-87
2022/04/02 10:00:18;;;;;;;2.00;1.80;;;;;;;;;;5025341;28;20548;-86
2022/04/02 10:03:01;;;;;;;4.47;1.52;;;;;;;;;;5021134;28;20044;-86
2022/04/02 10:05:45;;;;;;;2.08;1.45;;;;;;;;;;5043702;28;20044;-87
2022/04/02 10:08:46;;;;;;;2.53;1.50;;;;;;;;;;5015921;28;20049;-87
2022/04/02 10:11:12;;;;;;;3.65;1.88;;;;;;;;;;5050594;28;20068;-87
2022/04/02 10:13:39;;;;;;;3.42;1.88;;;;;;;;;;5018864;28;20364;-87
2022/04/02 10:16:05;;;;;;;6.28;2.28;;;;;;;;;;5018367;28;20047;-87
2022/04/02 10:18:34;;;;;;;3.50;1.60;;;;;;;;;;5016954;28;20107;-87
2022/04/02 10:21:03;;;;;;;1.50;1.40;;;;;;;;;;5040991;28;20029;-87
2022/04/02 10:23:30;;;;;;;3.47;1.88;;;;;;;;;;5033435;28;20509;-87
2022/04/02 10:26:15;;;;;;;3.70;1.70;;;;;;;;;;5048863;28;20082;-87
2022/04/02 10:28:44;;;;;;;3.50;1.80;;;;;;;;;;5011609;28;20564;-87
2022/04/02 10:31:13;;;;;;;3.30;1.90;;;;;;;;;;5046038;28;20320;-87
2022/04/02 10:33:41;;;;;;;3.83;1.67;;;;;;;;;;5015201;28;20452;-87
2022/04/02 10:36:08;;;;;;;2.85;1.65;;;;;;;;;;5014341;28;20041;-87
2022/04/02 10:38:35;;;;;;;2.03;1.67;;;;;;;;;;5027150;28;20063;-86
2022/04/02 10:41:13;;;;;;;2.72;1.83;;;;;;;;;;5004945;28;20103;-85
2022/04/02 10:43:57;;;;;;;3.30;1.75;;;;;;;;;;5007636;28;20052;-86
2022/04/02 10:46:25;;;;;;;2.88;1.65;;;;;;;;;;5051701;28;20465;-85
2022/04/02 10:48:57;;;;;;;3.85;1.70;;;;;;;;;;5015320;28;20124;-86
2022/04/02 10:51:26;;;;;;;4.45;2.03;;;;;;;;;;5043854;28;20048;-85
2022/04/02 10:54:04;;;;;;;5.18;2.05;;;;;;;;;;5017226;28;20054;-87
2022/04/02 10:56:48;;;;;;;3.28;1.90;;;;;;;;;;5016623;28;20348;-86
2022/04/02 10:59:19;;;;;;;3.58;1.58;;;;;;;;;;5029407;28;20695;-86
2022/04/02 11:01:46;;;;;;;3.72;1.77;;;;;;;;;;5029343;28;20121;-86
2022/04/02 11:04:30;;;;;;;6.13;2.42;;;;;;;;;;5034572;28;20547;-84
2022/04/02 11:06:57;;;;;;;3.25;1.48;;;;;;;;;;5041997;28;20029;-86
2022/04/02 11:09:36;;;;;;;3.13;1.70;;;;;;;;;;5038539;28;20071;-86
2022/04/02 11:12:09;;;;;;;4.03;1.70;;;;;;;;;;5029233;28;20056;-86
2022/04/02 11:14:40;;;;;;;3.70;1.55;;;;;;;;;;5037893;28;20413;-87
2022/04/02 11:17:06;;;;;;;2.33;1.83;;;;;;;;;;5020807;28;20047;-86
2022/04/02 11:22:29;;;;;;;6.22;1.67;;;;;;;;;;5057848;28;20051;-86
2022/04/02 11:25:06;;;;;;;3.50;1.75;;;;;;;;;;5015567;28;20045;-85
2022/04/02 11:27:36;;;;;;;5.30;1.70;;;;;;;;;;5028364;28;20053;-83
2022/04/02 11:30:10;;;;;;;3.33;1.58;;;;;;;;;;5014721;28;20053;-83
2022/04/02 11:32:44;;;;;;;4.05;1.60;;;;;;;;;;5023200;28;20039;-83
2022/04/02 11:35:16;;;;;;;3.38;1.77;;;;;;;;;;5015991;28;20033;-83
2022/04/02 11:37:57;;;;;;;3.50;1.92;;;;;;;;;;5015737;28;20043;-86
2022/04/02 11:40:27;;;;;;;3.72;1.73;;;;;;;;;;5034910;28;20033;-83
2022/04/02 11:42:54;;;;;;;3.30;2.00;;;;;;;;;;5028929;28;20071;-85
2022/04/02 11:45:20;;;;;;;2.53;2.03;;;;;;;;;;5032539;28;20029;-86
2022/04/02 11:47:48;;;;;;;3.85;1.88;;;;;;;;;;5036565;28;20051;-86
2022/04/02 11:50:26;;;;;;;6.03;2.22;;;;;;;;;;5031823;28;20048;-86
2022/04/02 11:52:57;;;;;;;3.90;2.30;;;;;;;;;;5028977;28;20056;-86
2022/04/02 11:55:24;;;;;;;3.42;2.13;;;;;;;;;;5031199;28;20033;-85
2022/04/02 11:57:58;;;;;;;2.75;2.15;;;;;;;;;;5029640;28;20116;-85
2022/04/02 12:00:26;;;;;;;2.95;1.77;;;;;;;;;;5027477;28;20032;-86
2022/04/02 12:02:52;;;;;;;3.20;1.80;;;;;;;;;;5037191;28;20136;-85
2022/04/02 12:05:20;;;;;;;6.35;2.78;;;;;;;;;;5031073;28;20028;-86
2022/04/02 12:07:49;;;;;;;4.50;2.20;;;;;;;;;;5031226;28;20041;-85
2022/04/02 12:10:16;;;;;;;2.63;1.80;;;;;;;;;;5026970;28;20063;-86
2022/04/02 12:12:51;;;;;;;2.17;1.80;;;;;;;;;;5032570;28;20047;-85
2022/04/02 12:15:18;;;;;;;1.70;1.60;;;;;;;;;;5049423;28;20051;-85
2022/04/02 12:17:47;;;;;;;4.43;2.00;;;;;;;;;;5026684;28;20044;-85
2022/04/02 12:20:18;;;;;;;2.72;1.42;;;;;;;;;;5030681;28;20047;-86
2022/04/02 12:22:46;;;;;;;4.78;2.10;;;;;;;;;;5028620;28;20060;-85
2022/04/02 12:25:20;;;;;;;1.80;1.70;;;;;;;;;;5023959;28;20048;-85
2022/04/02 12:27:50;;;;;;;4.20;2.20;;;;;;;;;;5036656;28;20052;-86
2022/04/02 12:30:21;;;;;;;6.38;1.98;;;;;;;;;;5025260;28;20386;-84
2022/04/02 12:32:47;;;;;;;3.70;2.20;;;;;;;;;;5025756;28;20051;-85
2022/04/02 12:35:15;;;;;;;4.00;2.10;;;;;;;;;;5026017;28;20048;-84
2022/04/02 12:37:50;;;;;;;3.30;2.53;;;;;;;;;;5023160;28;20087;-84
2022/04/02 12:40:28;;;;;;;5.47;2.53;;;;;;;;;;5005765;28;20076;-85
2022/04/02 12:43:09;;;;;;;5.45;2.88;;;;;;;;;;5046644;28;20131;-85
2022/04/02 12:45:36;;;;;;;4.10;2.40;;;;;;;;;;5018736;28;20048;-85
2022/04/02 12:48:07;;;;;;;4.63;2.63;;;;;;;;;;5031394;28;20037;-85
2022/04/02 12:50:36;;;;;;;4.65;3.10;;;;;;;;;;5028759;28;20075;-85
2022/04/02 12:53:02;;;;;;;3.70;3.15;;;;;;;;;;5046648;28;20032;-85
2022/04/02 12:55:33;;;;;;;6.88;2.83;;;;;;;;;;5025023;28;20072;-85
2022/04/02 12:58:07;;;;;;;3.65;2.90;;;;;;;;;;5037999;28;20064;-85
2022/04/02 13:00:38;;;;;;;6.22;4.53;;;;;;;;;;5049957;28;20056;-85
2022/04/02 13:03:06;;;;;;;5.45;2.83;;;;;;;;;;5045361;28;20047;-86
2022/04/02 13:05:50;;;;;;;7.47;2.70;;;;;;;;;;5049648;28;20049;-85
2022/04/02 13:08:24;;;;;;;3.63;2.63;;;;;;;;;;5010370;28;20067;-86
2022/04/02 13:11:01;;;;;;;4.65;2.70;;;;;;;;;;5036074;28;20514;-85
2022/04/02 13:13:41;;;;;;;2.67;2.47;;;;;;;;;;5018886;28;20100;-85
2022/04/02 13:16:11;;;;;;;5.10;2.20;;;;;;;;;;5021646;28;20052;-85
2022/04/02 13:21:33;;;;;;;3.28;1.65;;;;;;;;;;5055890;28;20121;-86
2022/04/02 13:24:11;;;;;;;4.35;2.00;;;;;;;;;;5036493;28;20120;-86
2022/04/02 13:26:38;;;;;;;4.03;1.92;;;;;;;;;;5047797;28;20447;-86
2022/04/02 13:29:45;;;;;;;4.57;2.55;;;;;;;;;;5036670;28;20466;-85
2022/04/02 13:32:23;;;;;;;5.03;2.60;;;;;;;;;;5049755;28;21494;-86
2022/04/02 13:35:26;;;;;;;5.28;2.10;;;;;;;;;;5034671;28;20393;-86
2022/04/02 13:38:01;;;;;;;2.10;1.90;;;;;;;;;;5060167;28;20079;-85
2022/04/02 13:40:28;;;;;;;1.88;1.67;;;;;;;;;;5055479;28;20056;-85
2022/04/02 13:42:58;;;;;;;3.47;1.83;;;;;;;;;;5048524;28;20572;-85
2022/04/02 13:45:25;;;;;;;4.07;1.83;;;;;;;;;;5028504;28;20104;-85
2022/04/02 13:47:58;;;;;;;3.58;1.77;;;;;;;;;;5023403;28;20128;-85
2022/04/02 13:50:28;;;;;;;3.15;1.92;;;;;;;;;;5057224;28;20044;-84
2022/04/02 13:53:03;;;;;;;3.05;1.90;;;;;;;;;;5045019;28;20045;-84
2022/04/02 13:55:30;;;;;;;1.92;1.60;;;;;;;;;;5021296;28;20532;-84
2022/04/02 13:58:03;;;;;;;4.45;1.90;;;;;;;;;;5035075;28;20115;-84
2022/04/02 14:00:35;;;;;;;5.78;2.45;;;;;;;;;;5039960;28;20041;-84
2022/04/02 14:03:04;;;;;;;5.30;2.28;;;;;;;;;;5017926;28;20049;-84
2022/04/02 14:05:32;;;;;;;3.97;2.13;;;;;;;;;;5035004;28;20037;-84
2022/04/02 14:08:09;;;;;;;6.15;2.10;;;;;;;;;;5020463;28;20127;-84
2022/04/02 14:10:48;;;;;;;3.35;2.25;;;;;;;;;;5038421;28;20397;-84
2022/04/02 14:13:29;;;;;;;3.88;2.30;;;;;;;;;;5018024;28;20044;-84
2022/04/02 14:15:59;;;;;;;3.85;2.70;;;;;;;;;;5040716;28;20493;-84
2022/04/02 14:18:28;;;;;;;3.63;2.15;;;;;;;;;;5038353;28;20115;-84
2022/04/02 14:21:01;;;;;;;7.80;2.58;;;;;;;;;;5059927;28;20054;-85
2022/04/02 14:23:40;;;;;;;5.00;2.28;;;;;;;;;;5030070;28;20033;-84
2022/04/02 14:26:25;;;;;;;5.05;1.88;;;;;;;;;;5028994;28;20096;-84
2022/04/02 14:29:16;;;;;;;4.68;2.35;;;;;;;;;;5035400;28;20037;-84
2022/04/02 14:32:23;;;;;;;3.22;1.85;;;;;;;;;;5024314;28;20037;-84
2022/04/02 14:35:18;;;;;;;5.93;2.13;;;;;;;;;;5023056;28;20056;-84
2022/04/02 14:38:26;;;;;;;3.97;1.73;;;;;;;;;;5061820;28;20098;-84
2022/04/02 14:41:03;;;;;;;7.65;2.03;;;;;;;;;;5040531;28;20121;-84
2022/04/02 14:43:51;;;;;;;4.03;2.72;;;;;;;;;;5046248;28;20517;-85
2022/04/02 14:46:42;;;;;;;4.10;2.15;;;;;;;;;;5058023;28;20079;-85
2022/04/02 14:49:24;;;;;;;3.35;2.10;;;;;;;;;;5043872;28;20095;-85
2022/04/02 14:52:16;;;;;;;4.00;1.95;;;;;;;;;;5035795;28;20060;-84
2022/04/02 14:55:09;;;;;;;4.30;2.28;;;;;;;;;;5021913;28;20082;-85
2022/04/02 14:58:06;;;;;;;4.10;2.30;;;;;;;;;;5055857;28;20136;-85
2022/04/02 15:00:42;;;;;;;4.60;1.75;;;;;;;;;;5028788;28;20055;-85
2022/04/02 15:03:45;;;;;;;6.80;2.13;;;;;;;;;;5035832;28;20211;-84
2022/04/02 15:06:15;;;;;;;4.03;1.95;;;;;;;;;;5041769;28;20487;-85
2022/04/02 15:09:19;;;;;;;2.78;1.75;;;;;;;;;;5045615;28;20040;-84
2022/04/02 15:11:57;;;;;;;4.78;1.73;;;;;;;;;;5040625;28;20067;-85
2022/04/02 15:14:30;;;;;;;2.25;1.30;;;;;;;;;;5048790;28;20427;-85